sensor_id;sensor_type;location;lat;lon;timestamp;pressure;altitude;pressure_sealevel;temperature;humidity
43503;BME280;29098;48.184;16.298;2022-10-29T00:14:30;100395.72;;;11.87;100.00
43503;BME280;29098;48.184;16.298;2022-10-29T00:19:58;100401.31;;;11.92;100.00
43503;BME280;29098;48.184;16.298;2022-10-29T00:40:41;100420.31;;;11.88;100.00
43503;BME280;29098;48.184;16.298;2022-10-29T00:46:14;100404.81;;;11.85;100.00
43503;BME280;29098;48.184;16.298;2022-10-29T01:06:51;100382.50;;;11.71;100.00
43503;BME280;29098;48.184;16.298;2022-10-29T01:12:39;100377.69;;;11.74;100.00
43503;BME280;29098;48.184;16.298;2022-10-29T01:43:30;100376.72;;;11.67;100.00
43503;BME280;29098;48.184;16.298;2022-10-29T02:04:35;100365.47;;;11.65;100.00
43503;BME280;29098;48.184;16.298;2022-10-29T02:20:07;100323.22;;;11.65;100.00
43503;BME280;29098;48.184;16.298;2022-10-29T02:34:44;100318.41;;;11.52;100.00
43503;BME280;29098;48.184;16.298;2022-10-29T02:37:09;100311.34;;;11.53;100.00
43503;BME280;29098;48.184;16.298;2022-10-29T02:39:35;100311.34;;;11.53;100.00
43503;BME280;29098;48.184;16.298;2022-10-29T02:42:00;100313.97;;;11.44;100.00
43503;BME280;29098;48.184;16.298;2022-10-29T02:44:25;100312.31;;;11.43;100.00
43503;BME280;29098;48.184;16.298;2022-10-29T02:46:51;100316.28;;;11.47;100.00
43503;BME280;29098;48.184;16.298;2022-10-29T02:49:16;100315.94;;;11.42;100.00
43503;BME280;29098;48.184;16.298;2022-10-29T02:51:41;100312.13;;;11.36;100.00
43503;BME280;29098;48.184;16.298;2022-10-29T02:54:07;100315.63;;;11.37;100.00
43503;BME280;29098;48.184;16.298;2022-10-29T02:56:32;100309.84;;;11.33;100.00
43503;BME280;29098;48.184;16.298;2022-10-29T02:58:57;100315.63;;;11.37;100.00
43503;BME280;29098;48.184;16.298;2022-10-29T03:01:23;100315.28;;;11.40;100.00
43503;BME280;29098;48.184;16.298;2022-10-29T03:03:48;100329.63;;;11.46;100.00
43503;BME280;29098;48.184;16.298;2022-10-29T03:06:15;100312.31;;;11.43;100.00
43503;BME280;29098;48.184;16.298;2022-10-29T03:08:40;100313.13;;;11.44;100.00
43503;BME280;29098;48.184;16.298;2022-10-29T03:11:06;100311.66;;;11.49;100.00
43503;BME280;29098;48.184;16.298;2022-10-29T03:13:31;100298.28;;;11.51;100.00
43503;BME280;29098;48.184;16.298;2022-10-29T03:15:57;100304.72;;;11.48;100.00
43503;BME280;29098;48.184;16.298;2022-10-29T03:18:22;100302.25;;;11.47;100.00
43503;BME280;29098;48.184;16.298;2022-10-29T03:20:47;100310.00;;;11.48;100.00
43503;BME280;29098;48.184;16.298;2022-10-29T03:23:13;100313.97;;;11.53;100.00
43503;BME280;29098;48.184;16.298;2022-10-29T03:25:38;100306.06;;;11.53;100.00
43503;BME280;29098;48.184;16.298;2022-10-29T03:28:04;100298.44;;;11.49;100.00
43503;BME280;29098;48.184;16.298;2022-10-29T03:30:29;100302.06;;;11.40;100.00
43503;BME280;29098;48.184;16.298;2022-10-29T03:32:54;100313.47;;;11.41;100.00
43503;BME280;29098;48.184;16.298;2022-10-29T03:35:20;100322.53;;;11.38;100.00
43503;BME280;29098;48.184;16.298;2022-10-29T03:37:47;100315.63;;;11.45;100.00
43503;BME280;29098;48.184;16.298;2022-10-29T03:40:13;100318.41;;;11.44;100.00
43503;BME280;29098;48.184;16.298;2022-10-29T03:42:38;100308.19;;;11.41;100.00
43503;BME280;29098;48.184;16.298;2022-10-29T03:45:03;100313.63;;;11.47;100.00
43503;BME280;29098;48.184;16.298;2022-10-29T03:47:29;100306.38;;;11.49;100.00
43503;BME280;29098;48.184;16.298;2022-10-29T03:49:54;100312.00;;;11.46;100.00
43503;BME280;29098;48.184;16.298;2022-10-29T03:52:20;100325.81;;;11.32;100.00
43503;BME280;29098;48.184;16.298;2022-10-29T03:54:45;100331.78;;;11.42;100.00
43503;BME280;29098;48.184;16.298;2022-10-29T03:57:11;100331.75;;;11.34;100.00
43503;BME280;29098;48.184;16.298;2022-10-29T03:59:36;100326.31;;;11.35;100.00
43503;BME280;29098;48.184;16.298;2022-10-29T04:02:01;100328.81;;;11.37;100.00
43503;BME280;29098;48.184;16.298;2022-10-29T04:04:27;100327.16;;;11.36;100.00
43503;BME280;29098;48.184;16.298;2022-10-29T04:06:52;100335.09;;;11.36;100.00
43503;BME280;29098;48.184;16.298;2022-10-29T04:09:17;100340.84;;;11.40;100.00
43503;BME280;29098;48.184;16.298;2022-10-29T04:11:43;100340.50;;;11.26;100.00
43503;BME280;29098;48.184;16.298;2022-10-29T04:14:08;100342.50;;;11.32;100.00
43503;BME280;29098;48.184;16.298;2022-10-29T04:16:33;100341.66;;;11.32;100.00
43503;BME280;29098;48.184;16.298;2022-10-29T04:18:59;100335.72;;;11.30;100.00
43503;BME280;29098;48.184;16.298;2022-10-29T04:21:24;100341.66;;;11.32;100.00
43503;BME280;29098;48.184;16.298;2022-10-29T04:23:50;100357.84;;;11.29;100.00
43503;BME280;29098;48.184;16.298;2022-10-29T04:26:15;100373.69;;;11.37;100.00
43503;BME280;29098;48.184;16.298;2022-10-29T04:28:41;100373.69;;;11.37;100.00
43503;BME280;29098;48.184;16.298;2022-10-29T04:31:07;100373.50;;;11.38;100.00
43503;BME280;29098;48.184;16.298;2022-10-29T04:33:34;100362.44;;;11.35;100.00
43503;BME280;29098;48.184;16.298;2022-10-29T04:35:59;100357.16;;;11.35;100.00
43503;BME280;29098;48.184;16.298;2022-10-29T04:38:24;100360.50;;;11.37;100.00
43503;BME280;29098;48.184;16.298;2022-10-29T04:40:50;100364.91;;;11.28;100.00
43503;BME280;29098;48.184;16.298;2022-10-29T04:43:15;100360.28;;;11.30;100.00
43503;BME280;29098;48.184;16.298;2022-10-29T04:45:41;100346.78;;;11.33;100.00
43503;BME280;29098;48.184;16.298;2022-10-29T04:48:06;100344.78;;;11.27;100.00
43503;BME280;29098;48.184;16.298;2022-10-29T04:50:32;100341.00;;;11.30;100.00
43503;BME280;29098;48.184;16.298;2022-10-29T04:52:58;100357.16;;;11.27;100.00
43503;BME280;29098;48.184;16.298;2022-10-29T04:55:24;100346.91;;;11.15;100.00
43503;BME280;29098;48.184;16.298;2022-10-29T04:57:49;100347.22;;;11.20;100.00
43503;BME280;29098;48.184;16.298;2022-10-29T05:00:14;100348.91;;;11.21;100.00
43503;BME280;29098;48.184;16.298;2022-10-29T05:02:40;100339.28;;;11.12;100.00
43503;BME280;29098;48.184;16.298;2022-10-29T05:05:05;100347.22;;;11.20;100.00
43503;BME280;29098;48.184;16.298;2022-10-29T05:07:30;100346.56;;;11.18;100.00
43503;BME280;29098;48.184;16.298;2022-10-29T05:09:56;100344.94;;;11.17;100.00
43503;BME280;29098;48.184;16.298;2022-10-29T05:12:21;100341.28;;;11.18;100.00
43503;BME280;29098;48.184;16.298;2022-10-29T05:14:46;100335.50;;;11.15;100.00
43503;BME280;29098;48.184;16.298;2022-10-29T05:17:12;100340.97;;;11.13;100.00
43503;BME280;29098;48.184;16.298;2022-10-29T05:19:37;100335.72;;;11.21;100.00
43503;BME280;29098;48.184;16.298;2022-10-29T05:22:02;100339.16;;;11.22;100.00
43503;BME280;29098;48.184;16.298;2022-10-29T05:24:28;100341.66;;;11.23;100.00
43503;BME280;29098;48.184;16.298;2022-10-29T05:26:53;100347.06;;;11.14;100.00
43503;BME280;29098;48.184;16.298;2022-10-29T05:29:18;100342.63;;;11.14;100.00
43503;BME280;29098;48.184;16.298;2022-10-29T05:31:43;100346.56;;;11.18;100.00
43503;BME280;29098;48.184;16.298;2022-10-29T05:34:09;100342.13;;;11.19;100.00
43503;BME280;29098;48.184;16.298;2022-10-29T05:36:34;100345.75;;;11.18;100.00
43503;BME280;29098;48.184;16.298;2022-10-29T05:38:59;100337.66;;;11.19;100.00
43503;BME280;29098;48.184;16.298;2022-10-29T05:41:25;100339.31;;;11.20;100.00
43503;BME280;29098;48.184;16.298;2022-10-29T05:43:50;100335.00;;;11.11;100.00
43503;BME280;29098;48.184;16.298;2022-10-29T05:46:15;100331.41;;;11.20;100.00
43503;BME280;29098;48.184;16.298;2022-10-29T05:48:41;100325.78;;;11.15;100.00
43503;BME280;29098;48.184;16.298;2022-10-29T05:51:06;100331.88;;;11.16;100.00
43503;BME280;29098;48.184;16.298;2022-10-29T05:53:32;100327.59;;;11.15;100.00
43503;BME280;29098;48.184;16.298;2022-10-29T05:55:57;100333.56;;;11.17;100.00
43503;BME280;29098;48.184;16.298;2022-10-29T05:58:23;100336.16;;;11.08;100.00
43503;BME280;29098;48.184;16.298;2022-10-29T06:00:48;100336.84;;;11.19;100.00
43503;BME280;29098;48.184;16.298;2022-10-29T06:03:15;100332.09;;;11.31;100.00
43503;BME280;29098;48.184;16.298;2022-10-29T06:05:40;100335.25;;;11.34;100.00
43503;BME280;29098;48.184;16.298;2022-10-29T06:08:06;100334.22;;;11.27;100.00
43503;BME280;29098;48.184;16.298;2022-10-29T06:10:31;100328.31;;;11.33;100.00
43503;BME280;29098;48.184;16.298;2022-10-29T06:12:57;100342.66;;;11.31;100.00
43503;BME280;29098;48.184;16.298;2022-10-29T06:15:22;100345.44;;;11.29;100.00
43503;BME280;29098;48.184;16.298;2022-10-29T06:17:47;100341.00;;;11.21;100.00
43503;BME280;29098;48.184;16.298;2022-10-29T06:20:14;100330.13;;;11.33;100.00
43503;BME280;29098;48.184;16.298;2022-10-29T06:22:39;100338.19;;;11.31;100.00
43503;BME280;29098;48.184;16.298;2022-10-29T06:25:05;100340.53;;;11.34;100.00
43503;BME280;29098;48.184;16.298;2022-10-29T06:27:30;100337.03;;;11.34;100.00
43503;BME280;29098;48.184;16.298;2022-10-29T06:29:56;100339.03;;;11.32;100.00
43503;BME280;29098;48.184;16.298;2022-10-29T06:32:21;100351.88;;;11.35;100.00
43503;BME280;29098;48.184;16.298;2022-10-29T06:34:46;100349.59;;;11.32;100.00
43503;BME280;29098;48.184;16.298;2022-10-29T06:37:12;100354.00;;;11.23;100.00
43503;BME280;29098;48.184;16.298;2022-10-29T06:39:37;100350.06;;;11.27;100.00
43503;BME280;29098;48.184;16.298;2022-10-29T06:42:03;100359.63;;;11.28;100.00
43503;BME280;29098;48.184;16.298;2022-10-29T06:44:28;100355.53;;;11.34;100.00
43503;BME280;29098;48.184;16.298;2022-10-29T06:46:53;100348.94;;;11.38;100.00
43503;BME280;29098;48.184;16.298;2022-10-29T06:49:19;100348.75;;;11.40;100.00
43503;BME280;29098;48.184;16.298;2022-10-29T06:51:44;100356.88;;;11.46;100.00
43503;BME280;29098;48.184;16.298;2022-10-29T06:54:10;100362.47;;;11.43;100.00
43503;BME280;29098;48.184;16.298;2022-10-29T06:56:35;100373.69;;;11.37;100.00
43503;BME280;29098;48.184;16.298;2022-10-29T06:59:00;100370.38;;;11.43;100.00
43503;BME280;29098;48.184;16.298;2022-10-29T07:01:26;100373.72;;;11.45;100.00
43503;BME280;29098;48.184;16.298;2022-10-29T07:03:52;100369.09;;;11.47;100.00
43503;BME280;29098;48.184;16.298;2022-10-29T07:06:18;100374.38;;;11.56;100.00
43503;BME280;29098;48.184;16.298;2022-10-29T07:08:43;100379.66;;;11.56;100.00
43503;BME280;29098;48.184;16.298;2022-10-29T07:11:09;100379.66;;;11.56;100.00
43503;BME280;29098;48.184;16.298;2022-10-29T07:13:34;100372.22;;;11.51;100.00
43503;BME280;29098;48.184;16.298;2022-10-29T07:16:00;100374.22;;;11.57;100.00
43503;BME280;29098;48.184;16.298;2022-10-29T07:18:25;100370.09;;;11.55;100.00
43503;BME280;29098;48.184;16.298;2022-10-29T07:20:50;100365.47;;;11.57;100.00
43503;BME280;29098;48.184;16.298;2022-10-29T07:23:16;100368.59;;;11.60;100.00
43503;BME280;29098;48.184;16.298;2022-10-29T07:25:41;100360.88;;;11.67;100.00
43503;BME280;29098;48.184;16.298;2022-10-29T07:28:09;100360.53;;;11.62;100.00
43503;BME280;29098;48.184;16.298;2022-10-29T07:30:35;100364.81;;;11.63;100.00
43503;BME280;29098;48.184;16.298;2022-10-29T07:33:00;100362.69;;;11.67;100.00
43503;BME280;29098;48.184;16.298;2022-10-29T07:35:25;100364.47;;;11.66;100.00
43503;BME280;29098;48.184;16.298;2022-10-29T07:37:51;100359.53;;;11.63;100.00
43503;BME280;29098;48.184;16.298;2022-10-29T07:40:16;100367.47;;;11.71;100.00
43503;BME280;29098;48.184;16.298;2022-10-29T07:42:41;100359.03;;;11.76;100.00
43503;BME280;29098;48.184;16.298;2022-10-29T07:45:07;100361.53;;;11.77;100.00
43503;BME280;29098;48.184;16.298;2022-10-29T07:47:32;100357.91;;;11.78;100.00
43503;BME280;29098;48.184;16.298;2022-10-29T07:49:57;100362.03;;;11.81;100.00
43503;BME280;29098;48.184;16.298;2022-10-29T07:52:23;100368.81;;;11.75;100.00
43503;BME280;29098;48.184;16.298;2022-10-29T07:54:48;100373.41;;;11.82;100.00
43503;BME280;29098;48.184;16.298;2022-10-29T07:57:14;100369.13;;;11.81;100.00
43503;BME280;29098;48.184;16.298;2022-10-29T07:59:40;100368.13;;;11.82;100.00
43503;BME280;29098;48.184;16.298;2022-10-29T08:02:07;100363.19;;;11.78;100.00
43503;BME280;29098;48.184;16.298;2022-10-29T08:04:32;100366.47;;;11.81;100.00
43503;BME280;29098;48.184;16.298;2022-10-29T08:06:58;100357.25;;;11.93;100.00
43503;BME280;29098;48.184;16.298;2022-10-29T08:09:23;100366.81;;;11.94;100.00
43503;BME280;29098;48.184;16.298;2022-10-29T08:11:48;100367.31;;;11.89;100.00
43503;BME280;29098;48.184;16.298;2022-10-29T08:14:14;100364.66;;;11.89;100.00
43503;BME280;29098;48.184;16.298;2022-10-29T08:16:39;100359.53;;;11.88;100.00
43503;BME280;29098;48.184;16.298;2022-10-29T08:19:04;100353.59;;;11.86;100.00
43503;BME280;29098;48.184;16.298;2022-10-29T08:21:29;100350.47;;;11.90;100.00
43503;BME280;29098;48.184;16.298;2022-10-29T08:23:55;100353.94;;;11.99;100.00
43503;BME280;29098;48.184;16.298;2022-10-29T08:26:20;100349.66;;;11.98;100.00
43503;BME280;29098;48.184;16.298;2022-10-29T08:28:46;100343.03;;;12.02;100.00
43503;BME280;29098;48.184;16.298;2022-10-29T08:31:11;100346.31;;;11.96;100.00
43503;BME280;29098;48.184;16.298;2022-10-29T08:33:36;100351.81;;;12.03;100.00
43503;BME280;29098;48.184;16.298;2022-10-29T08:36:02;100353.31;;;12.05;100.00
43503;BME280;29098;48.184;16.298;2022-10-29T08:38:27;100355.59;;;12.00;100.00
43503;BME280;29098;48.184;16.298;2022-10-29T08:41:05;100351.31;;;11.99;100.00
43503;BME280;29098;48.184;16.298;2022-10-29T08:46:08;100355.13;;;12.05;100.00
43503;BME280;29098;48.184;16.298;2022-10-29T08:48:45;100361.25;;;12.05;100.00
43503;BME280;29098;48.184;16.298;2022-10-29T08:51:22;100356.91;;;12.04;100.00
43503;BME280;29098;48.184;16.298;2022-10-29T08:53:49;100359.53;;;11.96;100.00
43503;BME280;29098;48.184;16.298;2022-10-29T08:56:17;100347.19;;;12.05;100.00
43503;BME280;29098;48.184;16.298;2022-10-29T09:01:15;100347.53;;;12.10;100.00
43503;BME280;29098;48.184;16.298;2022-10-29T09:03:42;100348.19;;;12.12;100.00
43503;BME280;29098;48.184;16.298;2022-10-29T09:08:44;100346.66;;;12.18;100.00
43503;BME280;29098;48.184;16.298;2022-10-29T09:13:44;100344.88;;;12.10;100.00
43503;BME280;29098;48.184;16.298;2022-10-29T09:33:43;100371.13;;;12.20;100.00
43503;BME280;29098;48.184;16.298;2022-10-29T09:36:14;100371.47;;;12.17;100.00
43503;BME280;29098;48.184;16.298;2022-10-29T09:38:50;100371.94;;;12.21;100.00
43503;BME280;29098;48.184;16.298;2022-10-29T09:41:17;100362.72;;;12.25;100.00
43503;BME280;29098;48.184;16.298;2022-10-29T09:53:46;100365.47;;;12.40;100.00
43503;BME280;29098;48.184;16.298;2022-10-29T09:56:11;100369.25;;;12.45;100.00
43503;BME280;29098;48.184;16.298;2022-10-29T09:58:38;100363.97;;;12.45;100.00
43503;BME280;29098;48.184;16.298;2022-10-29T10:01:06;100362.69;;;12.41;100.00
43503;BME280;29098;48.184;16.298;2022-10-29T10:03:37;100358.69;;;12.45;100.00
43503;BME280;29098;48.184;16.298;2022-10-29T10:06:08;100346.94;;;12.48;100.00
43503;BME280;29098;48.184;16.298;2022-10-29T10:08:35;100365.31;;;12.50;100.00
43503;BME280;29098;48.184;16.298;2022-10-29T10:11:19;100363.31;;;12.52;100.00
43503;BME280;29098;48.184;16.298;2022-10-29T10:13:57;100351.41;;;12.47;100.00
43503;BME280;29098;48.184;16.298;2022-10-29T10:16:24;100350.06;;;12.52;100.00
43503;BME280;29098;48.184;16.298;2022-10-29T10:18:50;100352.84;;;12.58;100.00
43503;BME280;29098;48.184;16.298;2022-10-29T10:21:26;100348.25;;;12.60;100.00
43503;BME280;29098;48.184;16.298;2022-10-29T10:23:52;100360.75;;;12.67;100.00
43503;BME280;29098;48.184;16.298;2022-10-29T10:29:02;100357.47;;;12.65;100.00
43503;BME280;29098;48.184;16.298;2022-10-29T10:31:27;100360.44;;;12.70;100.00
43503;BME280;29098;48.184;16.298;2022-10-29T10:33:53;100362.59;;;12.66;100.00
43503;BME280;29098;48.184;16.298;2022-10-29T10:36:25;100353.03;;;12.65;100.00
43503;BME280;29098;48.184;16.298;2022-10-29T10:38:53;100338.44;;;12.69;100.00
43503;BME280;29098;48.184;16.298;2022-10-29T10:41:23;100336.81;;;12.60;100.00
43503;BME280;29098;48.184;16.298;2022-10-29T10:43:50;100329.50;;;12.70;100.00
43503;BME280;29098;48.184;16.298;2022-10-29T10:46:19;100334.34;;;12.58;100.00
43503;BME280;29098;48.184;16.298;2022-10-29T10:48:55;100321.41;;;12.72;100.00
43503;BME280;29098;48.184;16.298;2022-10-29T10:53:46;100307.66;;;12.77;100.00
43503;BME280;29098;48.184;16.298;2022-10-29T10:56:18;100321.41;;;12.72;100.00
43503;BME280;29098;48.184;16.298;2022-10-29T11:01:30;100298.63;;;12.63;100.00
43503;BME280;29098;48.184;16.298;2022-10-29T11:08:54;100312.81;;;12.70;100.00
43503;BME280;29098;48.184;16.298;2022-10-29T11:13:48;100298.72;;;12.78;100.00
43503;BME280;29098;48.184;16.298;2022-10-29T11:18:41;100307.09;;;12.90;100.00
43503;BME280;29098;48.184;16.298;2022-10-29T11:21:20;100301.31;;;12.86;100.00
43503;BME280;29098;48.184;16.298;2022-10-29T11:26:30;100294.78;;;12.73;100.00
43503;BME280;29098;48.184;16.298;2022-10-29T11:31:43;100298.69;;;12.86;100.00
43503;BME280;29098;48.184;16.298;2022-10-29T11:36:39;100292.91;;;12.91;100.00
43503;BME280;29098;48.184;16.298;2022-10-29T11:39:09;100287.94;;;12.87;100.00
43503;BME280;29098;48.184;16.298;2022-10-29T11:41:39;100291.69;;;12.93;100.00
43503;BME280;29098;48.184;16.298;2022-10-29T11:44:08;100296.88;;;12.86;100.00
43503;BME280;29098;48.184;16.298;2022-10-29T11:52:16;100292.84;;;12.99;100.00
43503;BME280;29098;48.184;16.298;2022-10-29T11:57:33;100290.19;;;12.99;100.00
43503;BME280;29098;48.184;16.298;2022-10-29T12:12:53;100281.13;;;12.93;100.00
43503;BME280;29098;48.184;16.298;2022-10-29T12:15:38;100276.28;;;12.97;100.00
43503;BME280;29098;48.184;16.298;2022-10-29T12:20:40;100273.22;;;12.85;100.00
43503;BME280;29098;48.184;16.298;2022-10-29T12:28:09;100264.75;;;12.90;100.00
43503;BME280;29098;48.184;16.298;2022-10-29T12:31:25;100260.81;;;12.85;100.00
43503;BME280;29098;48.184;16.298;2022-10-29T12:33:37;100258.28;;;12.92;100.00
43503;BME280;29098;48.184;16.298;2022-10-29T12:38:38;100254.22;;;12.81;100.00
43503;BME280;29098;48.184;16.298;2022-10-29T12:41:08;100257.34;;;12.85;100.00
43503;BME280;29098;48.184;16.298;2022-10-29T12:43:37;100249.25;;;12.86;100.00
43503;BME280;29098;48.184;16.298;2022-10-29T12:46:09;100241.13;;;12.88;100.00
43503;BME280;29098;48.184;16.298;2022-10-29T12:57:09;100231.19;;;12.90;100.00
43503;BME280;29098;48.184;16.298;2022-10-29T12:59:43;100234.69;;;12.91;100.00
43503;BME280;29098;48.184;16.298;2022-10-29T13:04:37;100232.88;;;12.83;100.00
43503;BME280;29098;48.184;16.298;2022-10-29T13:07:03;100228.91;;;12.87;100.00
43503;BME280;29098;48.184;16.298;2022-10-29T13:09:29;100228.06;;;12.86;100.00
43503;BME280;29098;48.184;16.298;2022-10-29T13:11:58;100226.06;;;12.88;100.00
43503;BME280;29098;48.184;16.298;2022-10-29T13:19:58;100223.91;;;12.92;100.00
43503;BME280;29098;48.184;16.298;2022-10-29T13:27:53;100216.38;;;12.81;100.00
43503;BME280;29098;48.184;16.298;2022-10-29T13:30:22;100214.25;;;12.76;100.00
43503;BME280;29098;48.184;16.298;2022-10-29T13:32:52;100201.31;;;12.81;100.00
43503;BME280;29098;48.184;16.298;2022-10-29T13:45:25;100202.66;;;12.77;100.00
43503;BME280;29098;48.184;16.298;2022-10-29T13:47:50;100199.84;;;12.79;100.00
43503;BME280;29098;48.184;16.298;2022-10-29T13:50:18;100199.59;;;12.88;100.00
43503;BME280;29098;48.184;16.298;2022-10-29T13:52:45;100209.84;;;12.92;100.00
43503;BME280;29098;48.184;16.298;2022-10-29T13:55:14;100202.72;;;12.92;100.00
43503;BME280;29098;48.184;16.298;2022-10-29T14:00:24;100199.31;;;12.83;100.00
43503;BME280;29098;48.184;16.298;2022-10-29T14:10:41;100205.38;;;12.92;100.00
43503;BME280;29098;48.184;16.298;2022-10-29T14:13:28;100197.84;;;12.81;100.00
43503;BME280;29098;48.184;16.298;2022-10-29T14:18:30;100202.25;;;12.88;100.00
43503;BME280;29098;48.184;16.298;2022-10-29T14:20:56;100197.97;;;12.87;100.00
43503;BME280;29098;48.184;16.298;2022-10-29T14:23:22;100193.31;;;12.90;100.00
43503;BME280;29098;48.184;16.298;2022-10-29T14:25:52;100197.25;;;12.94;100.00
43503;BME280;29098;48.184;16.298;2022-10-29T14:31:00;100195.94;;;12.90;100.00
43503;BME280;29098;48.184;16.298;2022-10-29T14:33:29;100197.78;;;12.89;100.00
43503;BME280;29098;48.184;16.298;2022-10-29T14:36:38;100198.25;;;12.93;100.00
43503;BME280;29098;48.184;16.298;2022-10-29T14:38:46;100203.19;;;12.96;100.00
43503;BME280;29098;48.184;16.298;2022-10-29T14:41:13;100192.81;;;12.94;100.00
43503;BME280;29098;48.184;16.298;2022-10-29T14:43:39;100190.66;;;12.90;100.00
43503;BME280;29098;48.184;16.298;2022-10-29T14:46:09;100190.50;;;12.91;100.00
43503;BME280;29098;48.184;16.298;2022-10-29T14:48:35;100197.16;;;12.87;100.00
43503;BME280;29098;48.184;16.298;2022-10-29T14:51:01;100191.84;;;12.87;100.00
43503;BME280;29098;48.184;16.298;2022-10-29T14:55:51;100194.03;;;12.83;100.00
43503;BME280;29098;48.184;16.298;2022-10-29T14:58:27;100188.53;;;12.85;100.00
43503;BME280;29098;48.184;16.298;2022-10-29T15:00:55;100180.66;;;12.77;100.00
43503;BME280;29098;48.184;16.298;2022-10-29T15:03:22;100187.78;;;12.76;100.00
43503;BME280;29098;48.184;16.298;2022-10-29T15:05:48;100180.88;;;12.75;100.00
43503;BME280;29098;48.184;16.298;2022-10-29T15:08:15;100185.31;;;12.74;100.00
43503;BME280;29098;48.184;16.298;2022-10-29T15:13:22;100191.13;;;12.70;100.00
43503;BME280;29098;48.184;16.298;2022-10-29T15:15:52;100187.13;;;12.74;100.00
43503;BME280;29098;48.184;16.298;2022-10-29T15:18:18;100188.78;;;12.75;100.00
43503;BME280;29098;48.184;16.298;2022-10-29T15:20:45;100193.63;;;12.71;100.00
43503;BME280;29098;48.184;16.298;2022-10-29T15:23:16;100198.06;;;12.71;100.00
43503;BME280;29098;48.184;16.298;2022-10-29T15:25:43;100193.13;;;12.68;100.00
43503;BME280;29098;48.184;16.298;2022-10-29T15:28:09;100197.06;;;12.72;100.00
43503;BME280;29098;48.184;16.298;2022-10-29T15:30:36;100192.47;;;12.66;100.00
43503;BME280;29098;48.184;16.298;2022-10-29T15:33:05;100187.13;;;12.74;100.00
43503;BME280;29098;48.184;16.298;2022-10-29T15:41:46;100195.47;;;12.63;100.00
43503;BME280;29098;48.184;16.298;2022-10-29T16:02:33;100197.81;;;12.57;100.00
43503;BME280;29098;48.184;16.298;2022-10-29T16:17:35;100195.22;;;12.49;100.00
43503;BME280;29098;48.184;16.298;2022-10-29T16:23:03;100197.53;;;12.52;100.00
43503;BME280;29098;48.184;16.298;2022-10-29T16:28:31;100189.59;;;12.52;100.00
43503;BME280;29098;48.184;16.298;2022-10-29T16:48:58;100187.44;;;12.47;100.00
43503;BME280;29098;48.184;16.298;2022-10-29T16:51:23;100184.63;;;12.49;100.00
43503;BME280;29098;48.184;16.298;2022-10-29T16:53:49;100182.63;;;12.51;100.00
43503;BME280;29098;48.184;16.298;2022-10-29T16:56:14;100184.00;;;12.47;100.00
43503;BME280;29098;48.184;16.298;2022-10-29T16:58:39;100190.91;;;12.48;100.00
43503;BME280;29098;48.184;16.298;2022-10-29T17:01:05;100190.28;;;12.46;100.00
43503;BME280;29098;48.184;16.298;2022-10-29T17:03:31;100185.00;;;12.46;100.00
43503;BME280;29098;48.184;16.298;2022-10-29T17:06:03;100193.88;;;12.53;100.00
43503;BME280;29098;48.184;16.298;2022-10-29T17:08:30;100203.78;;;12.51;100.00
43503;BME280;29098;48.184;16.298;2022-10-29T17:10:59;100200.81;;;12.54;100.00
43503;BME280;29098;48.184;16.298;2022-10-29T17:13:24;100193.19;;;12.51;100.00
43503;BME280;29098;48.184;16.298;2022-10-29T17:15:50;100199.22;;;12.45;100.00
43503;BME280;29098;48.184;16.298;2022-10-29T17:18:15;100201.84;;;12.45;100.00
43503;BME280;29098;48.184;16.298;2022-10-29T17:20:40;100202.84;;;12.44;100.00
43503;BME280;29098;48.184;16.298;2022-10-29T17:23:05;100205.50;;;12.44;100.00
43503;BME280;29098;48.184;16.298;2022-10-29T17:25:31;100201.38;;;12.41;100.00
43503;BME280;29098;48.184;16.298;2022-10-29T17:27:56;100199.00;;;12.46;100.00
43503;BME280;29098;48.184;16.298;2022-10-29T17:30:21;100204.03;;;12.41;100.00
43503;BME280;29098;48.184;16.298;2022-10-29T17:32:46;100201.84;;;12.45;100.00
43503;BME280;29098;48.184;16.298;2022-10-29T17:35:12;100196.41;;;12.38;100.00
43503;BME280;29098;48.184;16.298;2022-10-29T17:37:37;100196.59;;;12.37;100.00
43503;BME280;29098;48.184;16.298;2022-10-29T17:40:03;100194.91;;;12.44;100.00
43503;BME280;29098;48.184;16.298;2022-10-29T17:42:28;100190.59;;;12.43;100.00
43503;BME280;29098;48.184;16.298;2022-10-29T17:44:54;100198.25;;;12.38;100.00
43503;BME280;29098;48.184;16.298;2022-10-29T17:47:19;100203.19;;;12.41;100.00
43503;BME280;29098;48.184;16.298;2022-10-29T17:49:46;100203.69;;;12.36;100.00
43503;BME280;29098;48.184;16.298;2022-10-29T17:52:11;100207.66;;;12.32;100.00
43503;BME280;29098;48.184;16.298;2022-10-29T17:54:37;100201.41;;;12.33;100.00
43503;BME280;29098;48.184;16.298;2022-10-29T17:57:02;100207.88;;;12.30;100.00
43503;BME280;29098;48.184;16.298;2022-10-29T17:59:27;100206.38;;;12.28;100.00
43503;BME280;29098;48.184;16.298;2022-10-29T18:01:55;100210.19;;;12.25;100.00
43503;BME280;29098;48.184;16.298;2022-10-29T18:04:21;100209.22;;;12.18;100.00
43503;BME280;29098;48.184;16.298;2022-10-29T18:06:46;100196.88;;;12.10;100.00
43503;BME280;29098;48.184;16.298;2022-10-29T18:09:11;100200.66;;;12.16;100.00